Time;durP1;ratioP1;P1;durP2;ratioP2;P2;SDS_P1;SDS_P2;PMS_P1;PMS_P2;Temp;Humidity;BMP_temperature;BMP_pressure;BME280_temperature;BME280_humidity;BME280_pressure;Samples;Min_cycle;Max_cycle;Signal;HPM_P1;HPM_P2
2022/08/24 00:01:24;;;;;;;9.33;7.20;;;;;;;19.92;100.00;94621.06;5115263;28;20465;-75
2022/08/24 00:03:51;;;;;;;9.57;7.40;;;;;;;19.92;100.00;94623.72;5115412;28;20439;-74
2022/08/24 00:06:20;;;;;;;10.67;7.60;;;;;;;19.96;100.00;94627.69;5115048;28;20486;-75
2022/08/24 00:08:48;;;;;;;10.67;6.47;;;;;;;19.98;100.00;94610.50;5115256;28;20459;-75
2022/08/24 00:11:16;;;;;;;11.27;7.60;;;;;;;19.99;100.00;94613.97;5115308;28;20443;-75
2022/08/24 00:13:45;;;;;;;8.50;7.70;;;;;;;20.01;100.00;94609.28;5114974;28;20462;-75
2022/08/24 00:16:12;;;;;;;12.23;7.10;;;;;;;19.96;100.00;94615.19;5115021;28;20525;-74
2022/08/24 00:18:39;;;;;;;11.73;8.03;;;;;;;19.96;100.00;94617.03;5115212;28;20821;-74
2022/08/24 00:21:07;;;;;;;10.53;8.00;;;;;;;19.95;100.00;94612.69;5114860;28;20512;-74
2022/08/24 00:23:35;;;;;;;10.43;7.40;;;;;;;19.94;100.00;94619.03;5114980;28;20489;-75
2022/08/24 00:26:01;;;;;;;13.53;8.63;;;;;;;19.93;100.00;94628.03;5114715;28;20494;-74
2022/08/24 00:28:29;;;;;;;14.50;7.43;;;;;;;19.94;100.00;94635.00;5115153;28;20503;-74
2022/08/24 00:30:57;;;;;;;17.50;7.23;;;;;;;19.96;100.00;94641.00;5114862;28;20435;-75
2022/08/24 00:33:24;;;;;;;9.17;6.90;;;;;;;19.97;100.00;94639.97;5114697;28;20969;-74
2022/08/24 00:35:51;;;;;;;13.17;8.60;;;;;;;19.97;100.00;94645.31;5114668;28;20451;-75
2022/08/24 00:38:17;;;;;;;7.77;6.97;;;;;;;19.93;100.00;94644.03;5078761;28;20447;-75
2022/08/24 00:40:47;;;;;;;8.30;7.30;;;;;;;19.87;100.00;94640.28;5114892;27;20447;-74
2022/08/24 00:43:14;;;;;;;9.60;8.70;;;;;;;19.78;100.00;94647.63;5114470;28;20462;-75
2022/08/24 00:45:44;;;;;;;9.20;8.30;;;;;;;19.79;100.00;94662.56;5114251;28;21009;-75
2022/08/24 00:48:17;;;;;;;14.37;8.37;;;;;;;19.81;100.00;94673.03;5113803;28;20793;-74
2022/08/24 00:50:49;;;;;;;9.73;7.90;;;;;;;19.80;100.00;94660.72;5114461;28;20451;-75
2022/08/24 00:53:23;;;;;;;14.20;8.47;;;;;;;19.81;100.00;94659.72;5114390;28;20448;-75
2022/08/24 00:55:54;;;;;;;10.53;8.90;;;;;;;19.86;100.00;94667.13;5114291;28;20447;-75
2022/08/24 00:58:25;;;;;;;11.17;8.70;;;;;;;19.87;100.00;94674.91;5078162;28;20439;-75
2022/08/24 01:00:56;;;;;;;10.10;9.10;;;;;;;19.84;100.00;94680.63;5114106;28;20466;-75
2022/08/24 01:03:26;;;;;;;11.80;8.53;;;;;;;19.50;100.00;94681.31;5114083;28;20937;-75
2022/08/24 01:05:55;;;;;;;9.73;8.73;;;;;;;19.18;100.00;94688.75;5114168;28;20863;-75
2022/08/24 01:08:23;;;;;;;10.47;9.23;;;;;;;19.25;100.00;94691.47;5114235;27;20533;-75
2022/08/24 01:10:53;;;;;;;8.93;8.03;;;;;;;19.30;100.00;94682.94;5113936;28;20447;-75
2022/08/24 01:13:20;;;;;;;11.40;9.03;;;;;;;19.32;100.00;94688.88;5114029;28;20474;-75
2022/08/24 01:15:51;;;;;;;11.17;9.03;;;;;;;19.20;100.00;94693.88;5114161;28;20443;-75
2022/08/24 01:21:12;;;;;;;12.40;9.00;;;;;;;19.12;100.00;94705.47;5114020;28;20435;-75
2022/08/24 01:23:42;;;;;;;18.70;10.00;;;;;;;19.18;100.00;94698.56;5113554;28;20974;-75
2022/08/24 01:26:14;;;;;;;14.20;9.50;;;;;;;19.26;100.00;94695.78;5113761;28;20484;-75
2022/08/24 01:28:44;;;;;;;12.77;8.83;;;;;;;19.34;100.00;94692.19;5113476;28;20859;-74
2022/08/24 01:31:10;;;;;;;12.63;9.63;;;;;;;19.39;100.00;94695.13;5113676;28;20988;-76
2022/08/24 01:33:37;;;;;;;14.20;9.77;;;;;;;19.45;100.00;94702.34;5113669;28;20443;-76
2022/08/24 01:36:13;;;;;;;19.73;8.87;;;;;;;19.49;100.00;94700.97;5113595;28;20451;-76
2022/08/24 01:38:46;;;;;;;12.73;9.50;;;;;;;19.56;100.00;94695.72;5113790;28;20447;-74
2022/08/24 01:41:13;;;;;;;10.70;8.30;;;;;;;19.60;100.00;94702.31;5113525;27;20447;-75
2022/08/24 01:43:40;;;;;;;10.70;7.40;;;;;;;19.66;100.00;94710.38;5077545;28;20439;-75
2022/08/24 01:46:07;;;;;;;9.60;8.60;;;;;;;19.68;100.00;94716.34;5113546;28;20474;-74
2022/08/24 01:48:34;;;;;;;15.53;8.97;;;;;;;19.74;100.00;94718.25;5113398;28;20454;-74
2022/08/24 01:51:01;;;;;;;20.00;12.00;;;;;;;19.79;100.00;94715.81;5113339;28;20454;-74
2022/08/24 01:53:28;;;;;;;17.27;10.10;;;;;;;19.82;100.00;94703.97;5113466;28;20457;-75
2022/08/24 01:55:56;;;;;;;17.50;11.70;;;;;;;19.85;100.00;94700.09;5113404;28;20447;-75
2022/08/24 01:58:23;;;;;;;15.30;10.60;;;;;;;19.90;100.00;94703.00;5113447;28;20447;-75
2022/08/24 02:00:50;;;;;;;14.53;10.27;;;;;;;19.94;100.00;94704.25;5113244;28;21011;-75
2022/08/24 02:03:17;;;;;;;15.00;11.23;;;;;;;19.94;100.00;94706.94;5113088;28;20450;-76
2022/08/24 02:05:44;;;;;;;16.80;10.13;;;;;;;19.95;100.00;94700.59;5113495;28;20489;-75
2022/08/24 02:08:11;;;;;;;9.17;8.27;;;;;;;20.00;100.00;94715.00;5077613;28;20465;-75
2022/08/24 02:10:38;;;;;;;11.80;9.13;;;;;;;20.02;100.00;94712.13;5113241;28;20454;-76
2022/08/24 02:13:06;;;;;;;10.07;8.50;;;;;;;20.05;100.00;94722.41;5113204;28;20475;-74
2022/08/24 02:15:38;;;;;;;10.37;8.80;;;;;;;20.04;100.00;94721.59;5112924;28;20944;-74
2022/08/24 02:18:05;;;;;;;12.97;8.90;;;;;;;20.04;100.00;94713.59;5078711;28;20547;-75
2022/08/24 02:20:33;;;;;;;9.07;7.67;;;;;;;20.01;100.00;94727.31;5076963;28;20982;-76
2022/08/24 02:23:00;;;;;;;9.73;8.73;;;;;;;20.01;100.00;94731.81;5113386;28;20450;-75
2022/08/24 02:25:29;;;;;;;11.07;9.83;;;;;;;20.01;100.00;94731.81;5113145;28;20447;-76
2022/08/24 02:27:56;;;;;;;10.93;8.40;;;;;;;20.01;100.00;94737.13;5113122;28;20466;-75
2022/08/24 02:30:25;;;;;;;18.50;8.30;;;;;;;20.00;100.00;94725.66;5113032;28;20446;-75
2022/08/24 02:32:52;;;;;;;12.70;8.97;;;;;;;20.00;100.00;94730.97;5112777;28;20504;-75
2022/08/24 02:35:19;;;;;;;13.07;8.67;;;;;;;19.99;100.00;94728.50;5113112;28;20447;-75
2022/08/24 02:37:45;;;;;;;15.17;8.27;;;;;;;19.98;100.00;94734.84;5112999;28;20445;-75
2022/08/24 02:40:12;;;;;;;16.07;7.50;;;;;;;19.96;100.00;94737.72;5112775;28;20443;-75
2022/08/24 02:42:39;;;;;;;12.03;7.50;;;;;;;19.95;100.00;94735.22;5112799;28;20443;-75
2022/08/24 02:45:08;;;;;;;11.20;8.70;;;;;;;19.94;100.00;94736.22;5112774;28;20909;-75
2022/08/24 02:47:37;;;;;;;15.13;8.80;;;;;;;19.94;100.00;94738.88;5077166;28;20543;-75
2022/08/24 02:50:06;;;;;;;13.33;9.47;;;;;;;19.92;100.00;94740.91;5112893;28;20574;-75
2022/08/24 02:52:34;;;;;;;11.80;9.17;;;;;;;19.87;100.00;94730.03;5112576;28;20949;-76
2022/08/24 02:55:01;;;;;;;10.80;9.33;;;;;;;19.89;100.00;94739.47;5112740;28;20766;-75
2022/08/24 02:57:28;;;;;;;18.43;10.70;;;;;;;19.89;100.00;94733.31;5112614;28;20521;-74
2022/08/24 02:59:55;;;;;;;14.67;10.23;;;;;;;19.88;100.00;94739.66;5112930;28;20504;-74
2022/08/24 03:02:22;;;;;;;16.53;11.13;;;;;;;19.86;100.00;94737.19;5112644;28;20447;-75
2022/08/24 03:04:50;;;;;;;14.40;10.40;;;;;;;19.85;100.00;94738.19;5112566;28;20534;-75
2022/08/24 03:07:17;;;;;;;15.00;11.50;;;;;;;19.83;100.00;94742.06;5095149;28;20495;-75
2022/08/24 03:09:43;;;;;;;16.53;12.30;;;;;;;19.82;100.00;94737.75;5037348;28;20984;-74
2022/08/24 03:12:11;;;;;;;14.87;12.13;;;;;;;19.86;100.00;94739.03;5075760;28;20854;-74
2022/08/24 03:14:38;;;;;;;21.60;12.47;;;;;;;19.85;100.00;94740.03;5075853;28;20453;-77
2022/08/24 03:17:05;;;;;;;17.33;11.40;;;;;;;19.86;100.00;94739.03;5075738;28;20460;-76
2022/08/24 03:19:32;;;;;;;22.40;11.47;;;;;;;19.85;100.00;94740.88;5075508;28;20498;-76
2022/08/24 03:22:00;;;;;;;15.13;11.50;;;;;;;19.86;100.00;94734.53;5075776;28;20449;-74
2022/08/24 03:24:27;;;;;;;17.50;13.53;;;;;;;19.86;100.00;94742.50;5056718;28;20460;-76
2022/08/24 03:26:54;;;;;;;18.73;11.30;;;;;;;19.86;100.00;94742.50;5075467;28;20483;-76
2022/08/24 03:29:20;;;;;;;15.20;10.80;;;;;;;19.84;100.00;94738.38;5075338;28;20448;-76
2022/08/24 03:31:48;;;;;;;18.80;11.83;;;;;;;19.79;100.00;94734.47;5075544;28;20448;-74
2022/08/24 03:34:15;;;;;;;21.40;12.40;;;;;;;19.78;100.00;94734.66;5075389;28;20484;-75
2022/08/24 03:36:45;;;;;;;24.47;12.63;;;;;;;19.75;100.00;94741.19;5075380;28;20452;-76
2022/08/24 03:39:14;;;;;;;21.27;13.97;;;;;;;19.72;100.00;94730.91;5075032;28;20440;-76
2022/08/24 03:41:41;;;;;;;21.17;14.00;;;;;;;19.73;100.00;94740.56;5075139;28;20927;-76
2022/08/24 03:44:08;;;;;;;23.80;13.83;;;;;;;19.71;100.00;94741.75;5074754;28;20453;-76
2022/08/24 03:46:37;;;;;;;23.93;15.33;;;;;;;19.69;100.00;94743.78;5075164;28;20896;-76
2022/08/24 03:52:32;;;;;;;30.57;18.70;;;;;;;19.69;100.00;94743.78;4983660;28;20445;-76
2022/08/24 03:58:16;;;;;;;22.93;14.40;;;;;;;19.72;100.00;94751.41;4954421;29;20891;-76
2022/08/24 04:00:43;;;;;;;26.60;16.23;;;;;;;19.70;100.00;94750.75;4954566;29;20466;-76
2022/08/24 04:03:11;;;;;;;25.43;16.70;;;;;;;19.73;100.00;94756.53;4954566;29;20822;-76
2022/08/24 04:05:38;;;;;;;36.07;17.30;;;;;;;19.76;100.00;94758.81;4954568;29;20820;-76
2022/08/24 04:08:06;;;;;;;31.03;16.07;;;;;;;19.76;100.00;94750.81;4954461;29;20486;-77
2022/08/24 04:10:34;;;;;;;18.37;13.67;;;;;;;19.75;100.00;94749.19;4954317;29;20980;-76
2022/08/24 04:13:01;;;;;;;18.23;14.80;;;;;;;19.82;100.00;94754.56;4952840;29;20451;-76
2022/08/24 04:15:30;;;;;;;17.70;14.17;;;;;;;19.87;100.00;94751.31;4954296;29;20229;-77
2022/08/24 04:17:57;;;;;;;22.00;13.87;;;;;;;20.03;100.00;94759.91;4954292;29;20458;-78
2022/08/24 04:20:24;;;;;;;20.70;12.60;;;;;;;20.23;100.00;94751.22;4954244;28;20583;-78
2022/08/24 04:22:51;;;;;;;23.07;12.80;;;;;;;20.37;100.00;94755.66;4954167;28;20861;-76
2022/08/24 04:25:18;;;;;;;17.83;13.90;;;;;;;20.40;100.00;94758.78;4958638;28;20450;-76
2022/08/24 04:27:46;;;;;;;19.07;12.60;;;;;;;20.40;100.00;94752.63;4974379;28;20540;-75
2022/08/24 04:30:14;;;;;;;19.97;13.40;;;;;;;20.36;100.00;94759.34;5031176;28;20512;-75
2022/08/24 04:32:41;;;;;;;25.13;14.17;;;;;;;20.31;100.00;94759.94;5019051;28;20451;-74
2022/08/24 04:35:08;;;;;;;20.10;14.53;;;;;;;20.27;100.00;94758.66;5050479;28;20441;-75
2022/08/24 04:37:35;;;;;;;27.97;14.30;;;;;;;20.25;100.00;94759.88;5092975;28;20774;-74
2022/08/24 04:40:02;;;;;;;18.37;13.80;;;;;;;20.24;100.00;94764.38;5053923;28;20464;-74
2022/08/24 04:42:30;;;;;;;16.80;12.43;;;;;;;20.26;100.00;94764.19;5062692;28;20513;-74
2022/08/24 04:44:58;;;;;;;18.43;12.17;;;;;;;20.24;100.00;94763.53;5101194;28;20834;-74
2022/08/24 04:47:25;;;;;;;17.93;12.13;;;;;;;20.25;100.00;94763.38;5056272;28;20486;-75
2022/08/24 04:49:52;;;;;;;22.00;12.43;;;;;;;20.28;100.00;94767.50;5091916;28;20447;-75
2022/08/24 04:52:19;;;;;;;19.43;11.30;;;;;;;20.29;100.00;94772.63;5080205;28;20445;-74
2022/08/24 04:54:45;;;;;;;22.33;12.03;;;;;;;20.28;100.00;94768.31;5094156;28;20505;-74
2022/08/24 04:57:12;;;;;;;18.30;11.40;;;;;;;20.33;100.00;94763.22;5102899;28;20444;-75
2022/08/24 04:59:39;;;;;;;16.80;11.60;;;;;;;20.37;100.00;94764.47;5091033;28;20488;-75
2022/08/24 05:02:08;;;;;;;19.60;10.93;;;;;;;20.42;100.00;94756.75;5092144;28;20527;-76
2022/08/24 05:04:36;;;;;;;13.93;10.63;;;;;;;20.48;100.00;94771.16;5106129;28;20998;-75
2022/08/24 05:07:03;;;;;;;14.40;10.97;;;;;;;20.53;100.00;94767.91;5094366;28;20480;-75
2022/08/24 05:09:30;;;;;;;20.13;9.70;;;;;;;20.56;100.00;94760.34;5089676;28;20527;-75
2022/08/24 05:11:57;;;;;;;11.07;9.83;;;;;;;20.64;100.00;94760.19;5090589;28;20543;-75
2022/08/24 05:14:24;;;;;;;16.37;10.40;;;;;;;20.70;100.00;94758.59;5091653;28;20464;-75
2022/08/24 05:16:50;;;;;;;12.70;10.40;;;;;;;20.80;100.00;94761.72;5087766;28;20450;-74
2022/08/24 05:19:19;;;;;;;10.90;9.30;;;;;;;20.90;100.00;94759.53;5078366;28;20448;-76
2022/08/24 05:21:46;;;;;;;13.03;10.90;;;;;;;21.06;100.00;94762.91;5101791;28;20477;-76
2022/08/24 05:24:12;;;;;;;10.37;9.30;;;;;;;21.16;100.00;94763.38;5113603;28;20445;-75
2022/08/24 05:26:39;;;;;;;17.20;10.30;;;;;;;21.26;100.00;94763.84;5113733;28;20482;-76
2022/08/24 05:29:06;;;;;;;10.87;9.00;;;;;;;21.35;99.27;94768.00;5083512;28;20460;-77
2022/08/24 05:31:33;;;;;;;12.33;9.20;;;;;;;21.44;98.79;94769.50;5074460;28;20445;-76
2022/08/24 05:34:02;;;;;;;9.77;8.83;;;;;;;21.53;98.29;94765.59;5081820;28;20444;-76
2022/08/24 05:36:32;;;;;;;17.80;9.07;;;;;;;21.61;97.51;94751.25;5080078;28;20444;-77
2022/08/24 05:39:02;;;;;;;15.47;8.70;;;;;;;21.76;97.13;94753.75;5091580;28;20443;-75
2022/08/24 05:41:29;;;;;;;9.03;8.13;;;;;;;21.87;96.68;94750.50;5098397;28;20457;-75
2022/08/24 05:43:56;;;;;;;9.60;8.60;;;;;;;21.88;95.72;94750.28;5074480;28;20515;-75
2022/08/24 05:46:23;;;;;;;10.23;9.17;;;;;;;21.93;95.12;94752.34;5083844;28;20897;-75
2022/08/24 05:48:50;;;;;;;18.23;8.57;;;;;;;21.99;95.37;94748.06;5077116;28;20449;-75
2022/08/24 05:51:17;;;;;;;13.33;9.07;;;;;;;21.96;95.53;94752.75;5077055;28;20469;-75
2022/08/24 05:53:45;;;;;;;9.03;8.17;;;;;;;21.98;94.95;94754.44;5076466;28;20458;-75
2022/08/24 05:56:14;;;;;;;10.17;8.17;;;;;;;22.03;94.78;94755.47;5084022;28;20444;-75
2022/08/24 05:58:41;;;;;;;9.40;8.43;;;;;;;22.21;94.99;94758.38;5073674;28;20445;-76
2022/08/24 06:01:09;;;;;;;15.90;8.07;;;;;;;22.36;93.66;94750.16;5088005;28;20868;-76
2022/08/24 06:03:37;;;;;;;10.00;6.97;;;;;;;22.55;92.74;94753.84;5090758;28;20452;-75
2022/08/24 06:06:06;;;;;;;9.77;8.77;;;;;;;22.73;91.26;94756.72;5106702;28;20486;-76
2022/08/24 06:08:35;;;;;;;8.47;7.57;;;;;;;22.84;90.83;94761.47;5102797;28;20535;-76
2022/08/24 06:11:03;;;;;;;9.10;8.20;;;;;;;23.02;91.43;94757.31;5092618;28;20440;-75
2022/08/24 06:13:30;;;;;;;12.33;7.90;;;;;;;23.21;91.34;94758.28;5092987;28;20475;-76
2022/08/24 06:16:08;;;;;;;9.10;6.90;;;;;;;23.40;89.34;94758.19;5092835;28;20474;-77
2022/08/24 06:18:36;;;;;;;21.40;14.00;;;;;;;23.51;87.57;94761.25;5092834;28;20443;-76
2022/08/24 06:21:08;;;;;;;13.60;10.70;;;;;;;23.63;85.10;94756.91;5092736;28;20526;-76
2022/08/24 06:23:36;;;;;;;7.50;6.63;;;;;;;23.67;81.76;94763.47;5092488;28;20449;-76
2022/08/24 06:28:50;;;;;;;8.20;6.53;;;;;;;23.81;82.97;94757.03;5092366;28;21323;-76
2022/08/24 06:31:18;;;;;;;8.20;7.40;;;;;;;23.86;81.35;94757.19;5090875;28;20456;-77
2022/08/24 06:33:48;;;;;;;12.77;8.13;;;;;;;23.93;80.75;94757.97;5097511;28;20452;-77
2022/08/24 06:36:15;;;;;;;16.97;10.20;;;;;;;23.99;80.15;94762.47;5100163;28;20452;-77
2022/08/24 06:38:42;;;;;;;9.37;8.37;;;;;;;24.12;81.75;94755.38;5100695;28;20443;-77
2022/08/24 06:41:11;;;;;;;10.37;8.47;;;;;;;24.19;80.69;94767.69;5092267;28;20443;-76
2022/08/24 06:43:38;;;;;;;9.80;7.93;;;;;;;24.31;80.21;94770.56;5098379;28;20975;-75
2022/08/24 06:46:06;;;;;;;10.10;7.13;;;;;;;24.43;79.86;94762.63;5093936;28;20941;-74
2022/08/24 06:48:33;;;;;;;8.90;8.10;;;;;;;24.59;80.12;94767.44;5096080;28;21330;-74
2022/08/24 06:51:00;;;;;;;10.93;8.17;;;;;;;24.67;78.02;94770.66;5095605;28;20447;-75
2022/08/24 06:53:27;;;;;;;11.27;9.00;;;;;;;24.59;77.66;94773.63;5096028;28;20460;-75
2022/08/24 06:55:56;;;;;;;11.10;8.30;;;;;;;24.61;76.99;94771.56;5094926;28;20526;-76
2022/08/24 06:58:26;;;;;;;8.73;7.93;;;;;;;24.57;76.54;94770.31;5096048;28;20436;-76
2022/08/24 07:00:53;;;;;;;8.00;7.13;;;;;;;24.63;75.81;94780.19;5103653;28;20439;-76
2022/08/24 07:03:21;;;;;;;8.47;7.50;;;;;;;24.70;75.15;94786.31;5101509;28;20907;-76
2022/08/24 07:05:50;;;;;;;10.60;7.50;;;;;;;24.56;77.54;94779.41;5108693;28;20533;-76
2022/08/24 07:08:17;;;;;;;11.90;7.97;;;;;;;24.68;76.92;94780.34;5102582;28;20862;-75
2022/08/24 07:10:44;;;;;;;9.10;7.13;;;;;;;24.94;77.09;94786.53;5114195;28;20455;-75
2022/08/24 07:13:12;;;;;;;8.60;7.80;;;;;;;25.02;75.81;94786.28;5097189;28;20528;-76
2022/08/24 07:15:41;;;;;;;13.70;8.17;;;;;;;25.00;75.57;94796.41;5116183;28;20503;-76
2022/08/24 07:18:09;;;;;;;8.37;7.57;;;;;;;25.01;76.02;94792.69;5100191;28;20532;-75
2022/08/24 07:20:36;;;;;;;13.37;7.00;;;;;;;25.06;74.50;94806.25;5108143;28;20443;-76
2022/08/24 07:23:02;;;;;;;9.07;7.50;;;;;;;24.95;75.04;94801.59;5116261;28;20458;-76
2022/08/24 07:25:30;;;;;;;9.57;8.60;;;;;;;24.86;74.18;94797.53;5094675;28;20447;-76
2022/08/24 07:27:59;;;;;;;9.57;7.90;;;;;;;24.87;74.41;94801.88;5111857;28;20581;-75
2022/08/24 07:30:26;;;;;;;10.20;8.70;;;;;;;25.00;74.97;94797.22;5092444;28;20791;-75
2022/08/24 07:32:55;;;;;;;10.27;8.20;;;;;;;25.20;75.81;94797.03;5095137;28;20451;-76
2022/08/24 07:35:22;;;;;;;12.07;8.93;;;;;;;25.45;74.88;94793.47;5095372;28;20455;-76
2022/08/24 07:37:49;;;;;;;7.77;6.90;;;;;;;25.67;71.90;94801.91;5106570;28;20455;-76
2022/08/24 07:40:16;;;;;;;8.23;7.13;;;;;;;25.86;71.55;94804.34;5100207;28;20471;-76
2022/08/24 07:42:43;;;;;;;8.17;7.23;;;;;;;25.97;70.31;94801.94;5066224;28;20439;-76
2022/08/24 07:45:10;;;;;;;7.57;6.77;;;;;;;26.10;69.05;94799.91;5115856;28;20820;-74
2022/08/24 07:47:37;;;;;;;12.47;7.83;;;;;;;26.17;70.85;94792.56;5093464;28;20848;-75
2022/08/24 07:50:06;;;;;;;9.23;8.27;;;;;;;26.21;69.90;94800.97;5089080;28;20448;-75
2022/08/24 07:52:33;;;;;;;7.20;6.50;;;;;;;26.30;69.18;94790.72;5092996;28;20444;-75
2022/08/24 07:55:00;;;;;;;11.00;8.00;;;;;;;26.24;69.08;94795.16;5083008;28;20462;-75
2022/08/24 07:57:27;;;;;;;8.63;6.07;;;;;;;26.19;68.85;94798.53;5092945;28;20455;-75
2022/08/24 07:59:53;;;;;;;7.10;6.40;;;;;;;26.28;68.56;94785.56;5101568;28;20447;-75
2022/08/24 08:02:20;;;;;;;8.40;6.60;;;;;;;26.44;68.86;94782.25;5092159;28;20442;-75
2022/08/24 08:04:47;;;;;;;7.90;5.70;;;;;;;26.60;65.71;94785.31;5094486;28;20955;-74
2022/08/24 08:07:16;;;;;;;7.00;6.13;;;;;;;26.75;66.03;94780.31;5099611;28;20431;-75
2022/08/24 08:09:43;;;;;;;10.77;6.50;;;;;;;27.00;65.98;94780.94;5055013;28;20507;-74
2022/08/24 08:12:10;;;;;;;9.00;8.10;;;;;;;27.20;65.18;94774.38;5089653;28;20467;-75
2022/08/24 08:14:37;;;;;;;8.40;7.60;;;;;;;27.39;64.31;94773.16;5096577;28;21785;-75
2022/08/24 08:17:05;;;;;;;7.60;6.63;;;;;;;27.49;63.56;94776.09;5108137;28;20453;-74
2022/08/24 08:19:32;;;;;;;9.80;6.07;;;;;;;27.58;63.65;94771.97;5100408;28;20500;-75
2022/08/24 08:24:44;;;;;;;10.63;6.30;;;;;;;28.01;63.49;94776.88;5076046;28;20419;-75
2022/08/24 08:27:15;;;;;;;10.50;6.43;;;;;;;28.23;61.74;94768.94;5072865;28;20441;-75
2022/08/24 08:29:43;;;;;;;11.40;6.07;;;;;;;28.43;62.74;94767.69;5074054;28;20448;-77
2022/08/24 08:32:13;;;;;;;13.03;8.70;;;;;;;28.31;61.01;94770.44;5074206;28;20456;-77
2022/08/24 08:34:40;;;;;;;12.07;8.00;;;;;;;28.18;61.16;94770.72;5074177;28;20459;-77
2022/08/24 08:37:07;;;;;;;6.60;5.60;;;;;;;27.79;59.81;94767.03;5074377;28;20452;-76
2022/08/24 08:39:34;;;;;;;9.30;8.40;;;;;;;27.87;61.80;94763.94;5073927;28;20445;-76
2022/08/24 08:42:29;;;;;;;6.63;6.03;;;;;;;27.92;60.88;94770.25;5074032;28;20448;-77
2022/08/24 08:45:08;;;;;;;11.93;6.67;;;;;;;28.13;60.13;94763.34;5073797;28;20981;-76
2022/08/24 08:48:16;;;;;;;10.10;6.20;;;;;;;28.32;60.43;94767.50;5073856;28;20895;-77
2022/08/24 08:51:00;;;;;;;6.57;5.60;;;;;;;28.53;60.29;94765.16;5073844;28;20457;-76
2022/08/24 08:54:02;;;;;;;8.97;6.70;;;;;;;28.58;59.19;94760.66;5073851;28;20441;-77
2022/08/24 08:56:40;;;;;;;6.93;6.33;;;;;;;28.56;60.53;94767.38;4998246;28;21006;-77
2022/08/24 08:59:24;;;;;;;6.77;6.17;;;;;;;28.54;61.87;94772.19;5011663;28;20513;-76
2022/08/24 09:02:02;;;;;;;6.40;5.63;;;;;;;28.45;59.97;94771.78;5011553;28;20498;-76
2022/08/24 09:05:15;;;;;;;6.83;5.87;;;;;;;28.45;60.76;94771.78;5011745;28;20466;-77
2022/08/24 09:07:50;;;;;;;9.00;5.50;;;;;;;27.75;59.86;94775.56;5011069;28;20573;-76
2022/08/24 09:10:49;;;;;;;12.63;5.50;;;;;;;27.45;61.21;94767.63;5030801;28;20453;-76
2022/08/24 09:13:29;;;;;;;7.33;6.17;;;;;;;27.29;62.29;94772.97;4952087;29;20486;-76
2022/08/24 09:16:07;;;;;;;7.63;6.10;;;;;;;27.04;63.06;94781.28;4953440;29;20458;-77
2022/08/24 09:18:50;;;;;;;10.53;6.13;;;;;;;27.04;62.05;94775.91;4953065;29;20454;-76
2022/08/24 09:21:41;;;;;;;5.63;5.13;;;;;;;27.25;61.45;94766.41;4952798;29;20537;-76
2022/08/24 09:24:24;;;;;;;6.17;5.07;;;;;;;27.44;60.55;94763.31;4936858;29;20446;-76
2022/08/24 09:27:05;;;;;;;5.90;5.40;;;;;;;27.67;58.95;94754.38;4952687;29;20461;-76
2022/08/24 09:29:46;;;;;;;7.53;5.53;;;;;;;27.93;60.64;94757.56;4952811;29;20490;-76
2022/08/24 09:32:30;;;;;;;8.13;5.50;;;;;;;27.90;58.67;94758.88;4952697;29;20969;-76
2022/08/24 09:35:01;;;;;;;7.57;5.23;;;;;;;28.12;60.15;94742.84;5011075;28;20439;-75
2022/08/24 09:37:33;;;;;;;6.00;5.20;;;;;;;28.12;61.00;94752.81;4978825;28;20455;-76
2022/08/24 09:40:18;;;;;;;9.57;5.80;;;;;;;27.52;57.99;94739.75;5010987;28;20466;-76
2022/08/24 09:43:20;;;;;;;7.20;6.20;;;;;;;27.77;61.54;94743.81;5011126;28;20518;-76
2022/08/24 09:46:21;;;;;;;5.57;5.07;;;;;;;27.83;58.64;94733.13;4914492;29;20456;-77
2022/08/24 09:49:33;;;;;;;7.73;5.10;;;;;;;27.91;58.68;94730.84;4919849;28;20495;-76
2022/08/24 09:52:35;;;;;;;6.27;5.67;;;;;;;27.99;57.88;94719.66;5010900;28;20447;-76
2022/08/24 09:55:33;;;;;;;6.77;6.13;;;;;;;27.98;59.11;94712.63;5010778;28;20849;-77
2022/08/24 09:58:13;;;;;;;6.77;6.07;;;;;;;28.04;60.23;94705.44;5010867;28;20455;-77
2022/08/24 10:00:45;;;;;;;7.70;6.70;;;;;;;28.07;59.80;94702.28;5010663;28;20451;-77
2022/08/24 10:03:27;;;;;;;10.40;6.00;;;;;;;28.13;59.03;94704.00;5010785;28;20451;-77
2022/08/24 10:06:15;;;;;;;8.07;6.00;;;;;;;28.04;58.26;94700.84;5010853;28;20443;-77
2022/08/24 10:09:27;;;;;;;8.03;5.77;;;;;;;28.01;58.23;94700.53;5010675;28;21006;-77
2022/08/24 10:12:02;;;;;;;9.57;6.17;;;;;;;27.88;59.08;94690.06;4952088;28;20458;-76
2022/08/24 10:14:44;;;;;;;7.00;5.50;;;;;;;27.76;58.25;94698.22;4956316;28;20448;-76
2022/08/24 10:17:19;;;;;;;7.47;4.47;;;;;;;27.58;59.36;94695.66;4971282;28;20453;-76
2022/08/24 10:20:00;;;;;;;6.63;5.37;;;;;;;27.61;59.36;94693.31;4974261;28;20860;-76
2022/08/24 10:22:46;;;;;;;7.73;6.00;;;;;;;27.54;62.37;94694.50;4960201;28;20454;-77
2022/08/24 10:25:29;;;;;;;6.13;5.50;;;;;;;27.37;61.24;94689.03;5014708;28;20815;-76
2022/08/24 10:28:06;;;;;;;7.80;5.60;;;;;;;27.28;61.54;94690.47;5014572;28;20946;-76
2022/08/24 10:30:55;;;;;;;6.03;5.40;;;;;;;27.19;62.27;94697.31;5014393;28;20444;-76
2022/08/24 10:33:24;;;;;;;6.90;6.20;;;;;;;26.79;62.92;94687.25;5014022;28;20450;-77
2022/08/24 10:36:35;;;;;;;6.73;5.23;;;;;;;26.99;63.25;94687.72;5014167;28;20961;-76
2022/08/24 10:46:25;;;;;;;9.30;5.07;;;;;;;27.20;61.80;94688.16;4935803;29;20433;-75
2022/08/24 10:49:15;;;;;;;6.53;5.93;;;;;;;27.14;61.87;94685.34;4992488;28;21050;-75
2022/08/24 10:51:58;;;;;;;7.67;5.60;;;;;;;27.12;59.76;94686.63;4950172;29;20969;-76
2022/08/24 10:54:27;;;;;;;7.40;5.70;;;;;;;27.31;59.60;94685.44;4946796;29;20502;-76
2022/08/24 10:57:02;;;;;;;10.03;6.23;;;;;;;27.43;60.08;94677.28;4927943;29;20875;-76
2022/08/24 10:59:34;;;;;;;7.10;6.40;;;;;;;27.56;58.49;94677.03;4938758;29;20454;-75
2022/08/24 11:02:05;;;;;;;7.43;6.07;;;;;;;27.81;59.77;94673.22;4943107;29;20439;-76
2022/08/24 11:04:34;;;;;;;7.67;6.90;;;;;;;28.02;62.54;94675.19;4951472;29;20821;-76
2022/08/24 11:07:09;;;;;;;6.70;6.20;;;;;;;27.91;61.07;94681.47;4952372;29;20458;-75
2022/08/24 11:09:52;;;;;;;9.13;6.10;;;;;;;27.35;61.67;94686.59;4944390;29;20490;-76
2022/08/24 11:12:28;;;;;;;9.50;7.00;;;;;;;27.44;63.85;94681.63;4948068;28;20471;-76
2022/08/24 11:14:59;;;;;;;7.20;6.37;;;;;;;27.46;63.00;94671.41;4999097;28;20440;-76
2022/08/24 11:17:31;;;;;;;6.73;6.07;;;;;;;27.60;61.53;94662.00;5034254;28;20445;-76
2022/08/24 11:19:58;;;;;;;7.07;6.47;;;;;;;27.51;60.45;94663.47;5049519;28;20524;-75
2022/08/24 11:22:35;;;;;;;8.57;5.63;;;;;;;27.30;61.76;94667.63;5040412;28;20446;-76
2022/08/24 11:25:09;;;;;;;11.10;6.90;;;;;;;27.27;63.10;94669.97;5033043;28;20450;-75
2022/08/24 11:27:39;;;;;;;7.70;5.60;;;;;;;27.34;64.11;94651.78;5039389;28;20855;-76
2022/08/24 11:30:21;;;;;;;10.93;5.73;;;;;;;27.34;64.58;94652.63;5089713;28;20483;-75
2022/08/24 11:32:55;;;;;;;7.67;6.20;;;;;;;27.44;63.37;94655.50;5103248;28;20501;-75
2022/08/24 11:35:24;;;;;;;6.43;5.17;;;;;;;27.16;64.88;94652.78;5059813;28;20769;-76
2022/08/24 11:37:53;;;;;;;10.77;5.30;;;;;;;26.97;66.16;94654.78;5093840;28;20823;-75
2022/08/24 11:40:26;;;;;;;6.63;6.03;;;;;;;26.82;66.06;94652.56;5110229;28;20443;-75
2022/08/24 11:43:16;;;;;;;8.70;6.80;;;;;;;26.85;65.89;94651.28;5079587;28;20454;-76
2022/08/24 11:45:52;;;;;;;7.47;5.60;;;;;;;26.85;64.46;94654.78;5109915;28;20933;-76
2022/08/24 11:48:31;;;;;;;9.90;6.43;;;;;;;26.94;64.29;94646.38;5111178;28;20451;-75
2022/08/24 11:51:05;;;;;;;7.63;6.47;;;;;;;26.97;64.20;94640.50;5100629;28;20447;-76
2022/08/24 11:53:41;;;;;;;9.70;6.10;;;;;;;27.05;64.47;94651.75;5112900;28;20443;-76
2022/08/24 11:56:24;;;;;;;9.27;6.20;;;;;;;27.06;64.89;94652.56;5093527;28;20444;-76
2022/08/24 11:58:59;;;;;;;6.60;6.00;;;;;;;27.05;63.95;94649.06;5094822;28;20490;-76
2022/08/24 12:01:33;;;;;;;8.70;6.13;;;;;;;27.06;65.06;94647.19;5059250;28;20448;-76
2022/08/24 12:04:33;;;;;;;9.20;6.47;;;;;;;27.09;64.66;94644.00;5094946;28;20526;-76
2022/08/24 12:07:11;;;;;;;7.07;6.13;;;;;;;27.13;63.72;94635.22;5063131;28;20444;-76